createdAt,value
2019-04-11T00:00:33.353Z,1014.07
2019-04-11T00:01:39.081Z,1014.02
2019-04-11T00:02:55.265Z,1013.98
2019-04-11T00:03:33.554Z,1013.99
2019-04-11T00:04:34.382Z,1013.98
2019-04-11T00:05:33.418Z,1013.99
2019-04-11T00:06:33.827Z,1013.99
2019-04-11T00:07:33.443Z,1014.03
2019-04-11T00:08:54.597Z,1014.04
2019-04-11T00:09:34.439Z,1014.03
2019-04-11T00:10:33.475Z,1014.00
2019-04-11T00:11:33.611Z,1014.08
2019-04-11T00:12:34.483Z,1014.03
2019-04-11T00:13:36.255Z,1014.01
2019-04-11T00:14:54.543Z,1014.06
2019-04-11T00:15:33.600Z,1014.09
2019-04-11T00:16:33.569Z,1014.06
2019-04-11T00:17:34.198Z,1014.02
2019-04-11T00:18:34.475Z,1014.04
2019-04-11T00:19:33.687Z,1014.04
2019-04-11T00:20:54.645Z,1014.07
2019-04-11T00:21:33.623Z,1014.02
2019-04-11T00:22:33.634Z,1014.04
2019-04-11T00:23:34.362Z,1014.06
2019-04-11T00:24:34.543Z,1014.04
2019-04-11T00:25:33.774Z,1014.06
2019-04-11T00:26:54.918Z,1014.04
2019-04-11T00:27:33.702Z,1014.09
2019-04-11T00:28:34.043Z,1014.11
2019-04-11T00:29:34.434Z,1014.06
2019-04-11T00:30:34.402Z,1014.07
2019-04-11T00:31:33.790Z,1014.08
2019-04-11T00:32:55.949Z,1014.11
2019-04-11T00:33:34.047Z,1014.11
2019-04-11T00:34:33.781Z,1014.12
2019-04-11T00:35:33.782Z,1014.11
2019-04-11T00:36:34.594Z,1014.09
2019-04-11T00:37:34.711Z,1014.11
2019-04-11T00:38:55.187Z,1014.11
2019-04-11T00:39:33.852Z,1014.12
2019-04-11T00:40:33.868Z,1014.14
2019-04-11T00:41:34.288Z,1014.12
2019-04-11T00:42:34.615Z,1014.07
2019-04-11T00:43:37.651Z,1014.10
2019-04-11T00:44:54.995Z,1014.10
2019-04-11T00:45:33.992Z,1014.15
2019-04-11T00:46:34.217Z,1014.14
2019-04-11T00:47:33.951Z,1014.12
2019-04-11T00:48:33.939Z,1014.13
2019-04-11T00:49:34.639Z,1014.13
2019-04-11T00:50:55.956Z,1014.10
2019-04-11T00:51:34.105Z,1014.14
2019-04-11T00:52:33.999Z,1014.14
2019-04-11T00:53:34.127Z,1014.12
2019-04-11T00:54:35.180Z,1014.14
2019-04-11T00:55:34.024Z,1014.15
2019-04-11T00:56:55.063Z,1014.14
2019-04-11T00:57:34.075Z,1014.16
2019-04-11T00:58:34.049Z,1014.12
2019-04-11T00:59:34.185Z,1014.15
2019-04-11T01:00:36.547Z,1014.10
2019-04-11T01:01:34.129Z,1014.08
2019-04-11T01:02:55.901Z,1014.11
2019-04-11T01:03:34.128Z,1014.09
2019-04-11T01:04:34.932Z,1014.11
2019-04-11T01:05:34.160Z,1014.11
2019-04-11T01:06:34.314Z,1014.11
2019-04-11T01:07:35.241Z,1014.11
2019-04-11T01:08:55.817Z,1014.13
2019-04-11T01:09:34.736Z,1014.13
2019-04-11T01:10:34.218Z,1014.15
2019-04-11T01:11:34.245Z,1014.17
2019-04-11T01:12:34.400Z,1014.20
2019-04-11T01:13:42.581Z,1014.16
2019-04-11T01:14:55.318Z,1014.20
2019-04-11T01:15:34.253Z,1014.19
2019-04-11T01:16:34.893Z,1014.19
2019-04-11T01:17:34.285Z,1014.20
2019-04-11T01:18:34.291Z,1014.23
2019-04-11T01:19:35.132Z,1014.13
2019-04-11T01:20:55.686Z,1014.22
2019-04-11T01:21:34.874Z,1014.21
2019-04-11T01:22:34.351Z,1014.20
2019-04-11T01:23:35.346Z,1014.24
2019-04-11T01:24:35.539Z,1014.22
2019-04-11T01:25:34.781Z,1014.23
2019-04-11T01:26:55.419Z,1014.26
2019-04-11T01:27:34.425Z,1014.21
2019-04-11T01:28:34.471Z,1014.24
2019-04-11T01:29:35.567Z,1014.23
2019-04-11T01:30:34.459Z,1014.26
2019-04-11T01:31:35.796Z,1014.22
2019-04-11T01:32:55.468Z,1014.22
2019-04-11T01:33:34.609Z,1014.23
2019-04-11T01:34:34.972Z,1014.28
2019-04-11T01:35:34.529Z,1014.23
2019-04-11T01:36:35.331Z,1014.22
2019-04-11T01:37:35.531Z,1014.24
2019-04-11T01:38:56.814Z,1014.26
2019-04-11T01:39:35.050Z,1014.28
2019-04-11T01:40:34.549Z,1014.26
2019-04-11T01:41:34.598Z,1014.25
2019-04-11T01:42:35.482Z,1014.25
2019-04-11T01:43:35.550Z,1014.27
2019-04-11T01:44:56.794Z,1014.26
2019-04-11T01:45:35.742Z,1014.24
2019-04-11T01:46:34.634Z,1014.24
2019-04-11T01:47:35.825Z,1014.27
2019-04-11T01:48:35.408Z,1014.27
2019-04-11T01:49:34.670Z,1014.28
2019-04-11T01:50:55.679Z,1014.25
2019-04-11T01:51:35.796Z,1014.25
2019-04-11T01:52:34.716Z,1014.27
2019-04-11T01:53:35.258Z,1014.30
2019-04-11T01:54:35.468Z,1014.28
2019-04-11T01:55:34.814Z,1014.29
2019-04-11T01:56:55.873Z,1014.31
2019-04-11T01:57:34.751Z,1014.31
2019-04-11T01:58:35.099Z,1014.30
2019-04-11T01:59:35.443Z,1014.38
2019-04-11T02:00:34.837Z,1014.35
2019-04-11T02:01:34.860Z,1014.34
2019-04-11T02:02:56.897Z,1014.37
2019-04-11T02:03:35.063Z,1014.34
2019-04-11T02:04:34.827Z,1014.32
2019-04-11T02:05:35.073Z,1014.36
2019-04-11T02:06:36.122Z,1014.33
2019-04-11T02:07:34.874Z,1014.38
2019-04-11T02:08:55.885Z,1014.37
2019-04-11T02:09:35.828Z,1014.38
2019-04-11T02:10:35.025Z,1014.43
2019-04-11T02:11:34.908Z,1014.40
2019-04-11T02:12:35.285Z,1014.37
2019-04-11T02:13:34.936Z,1014.43
2019-04-11T02:14:55.961Z,1014.41
2019-04-11T02:15:34.953Z,1014.45
2019-04-11T02:16:34.979Z,1014.49
2019-04-11T02:17:35.013Z,1014.46
2019-04-11T02:18:35.220Z,1014.50
2019-04-11T02:19:34.995Z,1014.49
2019-04-11T02:20:56.036Z,1014.52
2019-04-11T02:21:35.889Z,1014.53
2019-04-11T02:22:35.121Z,1014.51
2019-04-11T02:23:35.134Z,1014.55
2019-04-11T02:24:36.184Z,1014.54
2019-04-11T02:25:35.069Z,1014.51
2019-04-11T02:26:56.621Z,1014.54
2019-04-11T02:27:35.083Z,1014.57
2019-04-11T02:28:35.149Z,1014.51
2019-04-11T02:29:35.463Z,1014.57
2019-04-11T02:30:36.270Z,1014.54
2019-04-11T02:31:36.778Z,1014.59
2019-04-11T02:32:56.208Z,1014.54
2019-04-11T02:33:36.957Z,1014.58
2019-04-11T02:34:35.280Z,1014.58
2019-04-11T02:35:35.425Z,1014.58
2019-04-11T02:36:36.377Z,1014.57
2019-04-11T02:37:35.243Z,1014.56
2019-04-11T02:38:58.972Z,1014.58
2019-04-11T02:39:35.657Z,1014.66
2019-04-11T02:40:36.653Z,1014.64
2019-04-11T02:41:37.268Z,1014.65
2019-04-11T02:42:35.757Z,1014.65
2019-04-11T02:43:36.585Z,1014.70
2019-04-11T02:45:13.193Z,1014.71
2019-04-11T02:45:46.758Z,1014.71
2019-04-11T02:46:43.664Z,1014.76
2019-04-11T02:47:37.818Z,1014.76
2019-04-11T02:48:36.122Z,1014.76
2019-04-11T02:49:35.785Z,1014.74
2019-04-11T02:50:56.626Z,1014.79
2019-04-11T02:51:36.805Z,1014.78
2019-04-11T02:52:35.590Z,1014.79
2019-04-11T02:53:36.651Z,1014.77
2019-04-11T02:54:36.630Z,1014.76
2019-04-11T02:55:35.740Z,1014.79
2019-04-11T02:56:57.709Z,1014.79
2019-04-11T02:57:36.281Z,1014.73
2019-04-11T02:58:36.706Z,1014.83
2019-04-11T02:59:36.343Z,1014.78
2019-04-11T03:00:37.182Z,1014.80
2019-04-11T03:01:36.326Z,1014.80
2019-04-11T03:02:56.901Z,1014.81
2019-04-11T03:03:37.174Z,1014.81
2019-04-11T03:04:36.962Z,1014.83
2019-04-11T03:05:37.516Z,1014.84
2019-04-11T03:06:35.739Z,1014.83
2019-04-11T03:07:36.028Z,1014.86
2019-04-11T03:08:57.606Z,1014.85
2019-04-11T03:09:37.257Z,1014.84
2019-04-11T03:10:36.096Z,1014.89
2019-04-11T03:11:35.655Z,1014.85
2019-04-11T03:12:36.126Z,1014.87
2019-04-11T03:13:37.501Z,1014.84
2019-04-11T03:15:11.943Z,1014.82
2019-04-11T03:15:48.802Z,1014.81
2019-04-11T03:16:49.331Z,1014.79
2019-04-11T03:17:40.304Z,1014.83
2019-04-11T03:18:54.979Z,1014.85
2019-04-11T03:19:49.256Z,1014.86
2019-04-11T03:21:01.549Z,1014.88
2019-04-11T03:21:39.157Z,1014.83
2019-04-11T03:22:35.718Z,1014.90
2019-04-11T03:23:37.223Z,1014.86
2019-04-11T03:24:36.022Z,1014.89
2019-04-11T03:25:36.414Z,1014.89
2019-04-11T03:27:00.318Z,1014.90
2019-04-11T03:27:37.226Z,1014.93
2019-04-11T03:28:38.086Z,1014.90
2019-04-11T03:29:37.780Z,1014.89
2019-04-11T03:30:54.584Z,1014.89
2019-04-11T03:32:19.624Z,1014.89
2019-04-11T03:35:31.707Z,1014.87
2019-04-11T03:36:28.542Z,1014.87
2019-04-11T03:37:17.349Z,1014.83
2019-04-11T03:38:00.415Z,1014.84
2019-04-11T03:39:15.640Z,1014.86
2019-04-11T03:39:56.487Z,1014.90
2019-04-11T03:40:51.858Z,1014.86
2019-04-11T03:41:51.998Z,1014.89
2019-04-11T03:42:50.819Z,1014.90
2019-04-11T03:43:50.252Z,1014.91
2019-04-11T03:45:20.582Z,1014.92
2019-04-11T03:45:56.281Z,1014.90
2019-04-11T03:46:49.487Z,1014.96
2019-04-11T03:47:51.883Z,1014.92
2019-04-11T03:48:46.802Z,1014.96
2019-04-11T03:49:44.713Z,1014.93
2019-04-11T03:50:57.623Z,1014.94
2019-04-11T03:51:36.995Z,1014.93
2019-04-11T03:52:36.665Z,1015.00
2019-04-11T03:53:37.143Z,1015.00
2019-04-11T03:54:36.738Z,1014.99
2019-04-11T03:55:36.866Z,1015.00
2019-04-11T03:56:57.353Z,1015.05
2019-04-11T03:57:37.331Z,1015.03
2019-04-11T03:58:37.191Z,1015.02
2019-04-11T03:59:36.731Z,1015.09
2019-04-11T04:00:38.776Z,1015.10
2019-04-11T04:01:37.949Z,1015.17
2019-04-11T04:02:58.099Z,1015.08
2019-04-11T04:03:36.742Z,1015.10
2019-04-11T04:04:37.108Z,1015.14
2019-04-11T04:05:36.965Z,1015.17
2019-04-11T04:06:37.369Z,1015.13
2019-04-11T04:07:36.202Z,1015.18
2019-04-11T04:08:58.470Z,1015.17
2019-04-11T04:09:37.388Z,1015.19
2019-04-11T04:10:36.300Z,1015.21
2019-04-11T04:11:36.252Z,1015.25
2019-04-11T04:12:37.700Z,1015.22
2019-04-11T04:13:36.781Z,1015.23
2019-04-11T04:14:58.953Z,1015.23
2019-04-11T04:15:51.978Z,1015.23
2019-04-11T04:16:41.348Z,1015.25
2019-04-11T04:17:36.487Z,1015.23
2019-04-11T04:18:37.936Z,1015.24
2019-04-11T04:19:37.682Z,1015.26
2019-04-11T04:20:57.671Z,1015.29
2019-04-11T04:21:36.393Z,1015.28
2019-04-11T04:22:37.678Z,1015.25
2019-04-11T04:23:37.835Z,1015.30
2019-04-11T04:24:39.806Z,1015.30
2019-04-11T04:25:36.853Z,1015.29
2019-04-11T04:26:59.123Z,1015.29
2019-04-11T04:27:36.407Z,1015.37
2019-04-11T04:28:38.092Z,1015.36
2019-04-11T04:29:37.779Z,1015.37
2019-04-11T04:30:38.274Z,1015.39
2019-04-11T04:31:36.457Z,1015.49
2019-04-11T04:32:57.507Z,1015.44
2019-04-11T04:33:38.462Z,1015.47
2019-04-11T04:34:36.700Z,1015.48
2019-04-11T04:35:38.017Z,1015.48
2019-04-11T04:36:37.847Z,1015.49
2019-04-11T04:37:36.572Z,1015.55
2019-04-11T04:38:59.090Z,1015.56
2019-04-11T04:39:37.650Z,1015.54
2019-04-11T04:40:51.053Z,1015.52
2019-04-11T04:41:41.372Z,1015.57
2019-04-11T04:42:43.075Z,1015.59
2019-04-11T04:43:36.739Z,1015.61
2019-04-11T04:44:58.292Z,1015.65
2019-04-11T04:45:58.325Z,1015.59
2019-04-11T04:46:52.864Z,1015.64
2019-04-11T04:47:46.468Z,1015.66
2019-04-11T04:48:38.033Z,1015.61
2019-04-11T04:49:38.629Z,1015.63
2019-04-11T04:51:01.674Z,1015.61
2019-04-11T04:51:37.247Z,1015.62
2019-04-11T04:52:37.991Z,1015.62
2019-04-11T04:53:36.723Z,1015.60
2019-04-11T04:54:38.463Z,1015.66
2019-04-11T04:55:36.860Z,1015.63
2019-04-11T04:56:58.316Z,1015.75
2019-04-11T04:57:37.619Z,1015.65
2019-04-11T04:58:37.887Z,1015.74
2019-04-11T04:59:39.526Z,1015.70
2019-04-11T05:00:37.678Z,1015.74
2019-04-11T05:01:37.328Z,1015.78
2019-04-11T05:02:59.909Z,1015.82
2019-04-11T05:03:37.905Z,1015.80
2019-04-11T05:04:38.172Z,1015.83
2019-04-11T05:05:38.326Z,1015.82
2019-04-11T05:06:36.847Z,1015.77
2019-04-11T05:07:40.248Z,1015.77
2019-04-11T05:08:58.204Z,1015.84
2019-04-11T05:09:38.375Z,1015.84
2019-04-11T05:10:38.136Z,1015.86
2019-04-11T05:11:38.131Z,1015.87
2019-04-11T05:12:36.896Z,1015.87
2019-04-11T05:13:38.635Z,1015.91
2019-04-11T05:14:59.085Z,1015.90
2019-04-11T05:15:36.949Z,1015.89
2019-04-11T05:16:37.625Z,1015.96
2019-04-11T05:17:38.521Z,1015.96
2019-04-11T05:18:36.962Z,1015.95
2019-04-11T05:19:36.979Z,1015.99
2019-04-11T05:20:58.918Z,1016.04
2019-04-11T05:21:37.190Z,1016.02
2019-04-11T05:22:37.260Z,1016.01
2019-04-11T05:23:37.429Z,1016.01
2019-04-11T05:24:37.054Z,1016.02
2019-04-11T05:25:37.048Z,1016.03
2019-04-11T05:26:58.078Z,1016.03
2019-04-11T05:27:37.856Z,1016.02
2019-04-11T05:28:37.377Z,1016.07
2019-04-11T05:29:37.619Z,1016.06
2019-04-11T05:30:37.295Z,1016.04
2019-04-11T05:31:37.097Z,1016.09
2019-04-11T05:32:58.114Z,1016.11
2019-04-11T05:33:37.130Z,1016.13
2019-04-11T05:34:37.208Z,1016.13
2019-04-11T05:35:37.157Z,1016.12
2019-04-11T05:36:37.262Z,1016.13
2019-04-11T05:37:37.779Z,1016.12
2019-04-11T05:38:58.302Z,1016.18
2019-04-11T05:39:38.060Z,1016.14
2019-04-11T05:40:37.741Z,1016.16
2019-04-11T05:41:37.691Z,1016.17
2019-04-11T05:42:37.627Z,1016.18
2019-04-11T05:43:39.829Z,1016.17
2019-04-11T05:44:59.128Z,1016.16
2019-04-11T05:45:38.070Z,1016.14
2019-04-11T05:46:49.097Z,1016.19
2019-04-11T05:47:37.384Z,1016.19
2019-04-11T05:48:37.305Z,1016.18
2019-04-11T05:49:40.368Z,1016.20
2019-04-11T05:50:58.373Z,1016.20
2019-04-11T05:51:42.238Z,1016.19
2019-04-11T05:52:37.344Z,1016.23
2019-04-11T05:53:38.648Z,1016.16
2019-04-11T05:54:39.964Z,1016.18
2019-04-11T05:55:41.349Z,1016.22
2019-04-11T05:56:59.516Z,1016.19
2019-04-11T05:57:38.828Z,1016.19
2019-04-11T05:58:42.210Z,1016.18
2019-04-11T05:59:37.401Z,1016.24
2019-04-11T06:00:38.047Z,1016.20
2019-04-11T06:01:38.326Z,1016.24
2019-04-11T06:02:59.593Z,1016.22
2019-04-11T06:03:41.059Z,1016.22
2019-04-11T06:04:37.459Z,1016.22
2019-04-11T06:05:38.834Z,1016.26
2019-04-11T06:06:40.241Z,1016.20
2019-04-11T06:07:41.522Z,1016.24
2019-04-11T06:09:00.628Z,1016.26
2019-04-11T06:09:39.863Z,1016.25
2019-04-11T06:10:42.569Z,1016.27
2019-04-11T06:11:37.541Z,1016.26
2019-04-11T06:12:37.939Z,1016.28
2019-04-11T06:13:37.553Z,1016.27
2019-04-11T06:14:59.635Z,1016.28
2019-04-11T06:15:39.689Z,1016.27
2019-04-11T06:16:43.553Z,1016.29
2019-04-11T06:17:38.494Z,1016.30
2019-04-11T06:18:41.890Z,1016.32
2019-04-11T06:19:37.641Z,1016.32
2019-04-11T06:20:59.748Z,1016.34
2019-04-11T06:21:37.649Z,1016.34
2019-04-11T06:22:38.102Z,1016.34
2019-04-11T06:23:37.657Z,1016.35
2019-04-11T06:24:38.540Z,1016.37
2019-04-11T06:25:40.234Z,1016.37
2019-04-11T06:26:58.877Z,1016.42
2019-04-11T06:27:39.022Z,1016.42
2019-04-11T06:28:38.072Z,1016.43
2019-04-11T06:29:38.878Z,1016.39
2019-04-11T06:30:37.743Z,1016.39
2019-04-11T06:31:38.155Z,1016.40
2019-04-11T06:32:58.787Z,1016.39
2019-04-11T06:33:37.836Z,1016.41
2019-04-11T06:34:37.803Z,1016.43
2019-04-11T06:35:37.892Z,1016.44
2019-04-11T06:36:39.076Z,1016.47
2019-04-11T06:37:38.126Z,1016.46
2019-04-11T06:38:58.861Z,1016.44
2019-04-11T06:39:37.915Z,1016.47
2019-04-11T06:40:37.878Z,1016.50
2019-04-11T06:41:38.771Z,1016.51
2019-04-11T06:42:37.910Z,1016.49
2019-04-11T06:43:38.412Z,1016.49
2019-04-11T06:44:58.945Z,1016.54
2019-04-11T06:45:37.924Z,1016.55
2019-04-11T06:46:48.851Z,1016.57
2019-04-11T06:47:37.956Z,1016.50
2019-04-11T06:48:38.121Z,1016.58
2019-04-11T06:49:38.441Z,1016.57
2019-04-11T06:50:59.673Z,1016.61
2019-04-11T06:51:38.016Z,1016.55
2019-04-11T06:52:39.060Z,1016.59
2019-04-11T06:53:38.045Z,1016.57
2019-04-11T06:54:39.152Z,1016.57
2019-04-11T06:55:39.099Z,1016.60
2019-04-11T06:56:59.213Z,1016.58
2019-04-11T06:57:38.296Z,1016.58
2019-04-11T06:58:39.150Z,1016.61
2019-04-11T06:59:38.673Z,1016.61
2019-04-11T07:00:39.093Z,1016.65
2019-04-11T07:01:38.415Z,1016.66
2019-04-11T07:02:59.358Z,1016.63
2019-04-11T07:03:38.543Z,1016.62
2019-04-11T07:04:38.184Z,1016.62
2019-04-11T07:05:38.628Z,1016.61
2019-04-11T07:06:38.175Z,1016.65
2019-04-11T07:07:38.219Z,1016.64
2019-04-11T07:08:59.237Z,1016.66
2019-04-11T07:09:39.314Z,1016.68
2019-04-11T07:10:38.294Z,1016.68
2019-04-11T07:11:38.406Z,1016.69
2019-04-11T07:12:38.613Z,1016.68
2019-04-11T07:13:39.261Z,1016.70
2019-04-11T07:15:00.125Z,1016.70
2019-04-11T07:15:38.311Z,1016.73
2019-04-11T07:16:38.315Z,1016.70
2019-04-11T07:17:38.620Z,1016.68
2019-04-11T07:18:38.331Z,1016.70
2019-04-11T07:19:39.335Z,1016.70
2019-04-11T07:21:00.520Z,1016.73
2019-04-11T07:21:38.358Z,1016.70
2019-04-11T07:22:38.982Z,1016.71
2019-04-11T07:23:38.476Z,1016.70
2019-04-11T07:24:39.031Z,1016.71
2019-04-11T07:25:39.435Z,1016.77
2019-04-11T07:26:59.447Z,1016.75
2019-04-11T07:27:38.646Z,1016.73
2019-04-11T07:28:39.366Z,1016.72
2019-04-11T07:29:38.456Z,1016.76
2019-04-11T07:30:39.564Z,1016.73
2019-04-11T07:31:39.612Z,1016.79
2019-04-11T07:32:59.515Z,1016.76
2019-04-11T07:33:38.515Z,1016.78
2019-04-11T07:34:40.047Z,1016.82
2019-04-11T07:35:39.820Z,1016.76
2019-04-11T07:36:38.568Z,1016.73
2019-04-11T07:37:38.854Z,1016.70
2019-04-11T07:38:59.879Z,1016.79
2019-04-11T07:39:41.293Z,1016.78
2019-04-11T07:40:39.543Z,1016.82
2019-04-11T07:41:39.165Z,1016.80
2019-04-11T07:42:39.090Z,1016.83
2019-04-11T07:43:39.097Z,1016.83
2019-04-11T07:44:59.729Z,1016.83
2019-04-11T07:45:40.234Z,1016.84
2019-04-11T07:46:38.734Z,1016.88
2019-04-11T07:47:38.780Z,1016.88
2019-04-11T07:48:38.696Z,1016.80
2019-04-11T07:49:38.732Z,1016.82
2019-04-11T07:50:59.789Z,1016.80
2019-04-11T07:51:38.782Z,1016.81
2019-04-11T07:52:38.766Z,1016.82
2019-04-11T07:53:39.494Z,1016.85
2019-04-11T07:54:38.998Z,1016.84
2019-04-11T07:55:38.789Z,1016.89
2019-04-11T07:56:59.816Z,1016.84
2019-04-11T07:57:38.814Z,1016.84
2019-04-11T07:58:39.805Z,1016.80
2019-04-11T07:59:39.701Z,1016.82
2019-04-11T08:00:45.680Z,1016.80
2019-04-11T08:01:38.856Z,1016.86
2019-04-11T08:02:59.890Z,1016.87
2019-04-11T08:03:39.952Z,1016.86
2019-04-11T08:04:38.895Z,1016.86
2019-04-11T08:05:38.974Z,1016.83
2019-04-11T08:06:39.088Z,1016.88
2019-04-11T08:07:38.971Z,1016.85
2019-04-11T08:09:00.384Z,1016.91
2019-04-11T08:09:39.602Z,1016.86
2019-04-11T08:10:38.990Z,1016.90
2019-04-11T08:11:40.039Z,1016.89
2019-04-11T08:12:39.380Z,1016.88
2019-04-11T08:13:39.027Z,1016.95
2019-04-11T08:15:00.064Z,1016.90
2019-04-11T08:15:39.887Z,1016.93
2019-04-11T08:16:39.224Z,1016.89
2019-04-11T08:17:42.326Z,1016.86
2019-04-11T08:18:39.109Z,1016.85
2019-04-11T08:19:39.094Z,1016.87
2019-04-11T08:21:00.135Z,1016.94
2019-04-11T08:21:39.121Z,1016.89
2019-04-11T08:22:39.305Z,1016.92
2019-04-11T08:23:40.085Z,1016.94
2019-04-11T08:24:39.192Z,1016.96
2019-04-11T08:25:39.862Z,1016.96
2019-04-11T08:27:00.943Z,1016.95
2019-04-11T08:27:50.996Z,1016.96
2019-04-11T08:28:39.295Z,1016.96
2019-04-11T08:29:39.259Z,1017.00
2019-04-11T08:30:40.135Z,1017.00
2019-04-11T08:31:40.213Z,1016.95
2019-04-11T08:33:00.395Z,1016.99
2019-04-11T08:33:40.469Z,1016.97
2019-04-11T08:34:39.650Z,1016.94
2019-04-11T08:35:40.195Z,1017.00
2019-04-11T08:36:40.097Z,1017.00
2019-04-11T08:37:39.991Z,1016.96
2019-04-11T08:39:00.620Z,1016.95
2019-04-11T08:39:39.543Z,1017.01
2019-04-11T08:40:39.377Z,1016.99
2019-04-11T08:41:39.943Z,1016.95
2019-04-11T08:42:40.635Z,1016.97
2019-04-11T08:43:39.447Z,1017.03
2019-04-11T08:45:00.527Z,1017.01
2019-04-11T08:45:40.345Z,1016.98
2019-04-11T08:46:39.467Z,1017.03
2019-04-11T08:47:46.042Z,1017.02
2019-04-11T08:48:39.522Z,1017.03
2019-04-11T08:49:39.738Z,1017.06
2019-04-11T08:51:00.961Z,1017.04
2019-04-11T08:51:39.535Z,1017.04
2019-04-11T08:52:40.290Z,1017.04
2019-04-11T08:53:40.619Z,1017.06
2019-04-11T08:54:39.733Z,1017.07
2019-04-11T08:55:48.554Z,1017.12
2019-04-11T08:57:01.279Z,1017.12
2019-04-11T08:57:40.943Z,1017.11
2019-04-11T08:58:40.597Z,1017.06
2019-04-11T08:59:39.819Z,1017.02
2019-04-11T09:00:40.181Z,1017.02
2019-04-11T09:01:40.283Z,1017.03
2019-04-11T09:03:01.673Z,1017.00
2019-04-11T09:03:39.948Z,1016.97
2019-04-11T09:04:40.912Z,1017.00
2019-04-11T09:05:40.816Z,1016.99
2019-04-11T09:06:40.872Z,1017.01
2019-04-11T09:07:39.751Z,1017.04
2019-04-11T09:09:00.792Z,1017.04
2019-04-11T09:09:39.836Z,1017.05
2019-04-11T09:10:40.064Z,1017.14
2019-04-11T09:11:41.140Z,1017.09
2019-04-11T09:12:39.829Z,1017.07
2019-04-11T09:13:39.845Z,1017.02
2019-04-11T09:15:00.909Z,1017.09
2019-04-11T09:15:39.869Z,1017.07
2019-04-11T09:16:39.898Z,1017.10
2019-04-11T09:17:44.449Z,1017.08
2019-04-11T09:18:39.910Z,1016.99
2019-04-11T09:19:41.033Z,1017.00
2019-04-11T09:21:02.257Z,1017.02
2019-04-11T09:21:40.373Z,1017.04
2019-04-11T09:22:40.013Z,1017.03
2019-04-11T09:23:39.989Z,1017.01
2019-04-11T09:24:40.932Z,1017.02
2019-04-11T09:25:40.078Z,1016.96
2019-04-11T09:27:01.053Z,1016.96
2019-04-11T09:27:40.534Z,1016.99
2019-04-11T09:28:40.050Z,1017.07
2019-04-11T09:29:40.074Z,1016.96
2019-04-11T09:30:41.081Z,1016.90
2019-04-11T09:31:41.448Z,1017.02
2019-04-11T09:33:01.129Z,1017.04
2019-04-11T09:33:41.362Z,1016.96
2019-04-11T09:34:40.135Z,1016.98
2019-04-11T09:35:40.154Z,1016.99
2019-04-11T09:36:40.931Z,1016.98
2019-04-11T09:37:40.188Z,1017.00
2019-04-11T09:39:02.469Z,1016.96
2019-04-11T09:39:41.363Z,1017.00
2019-04-11T09:40:40.263Z,1016.95
2019-04-11T09:41:40.680Z,1016.92
2019-04-11T09:42:40.277Z,1016.93
2019-04-11T09:43:40.270Z,1016.90
2019-04-11T09:45:01.435Z,1016.97
2019-04-11T09:45:40.295Z,1016.91
2019-04-11T09:46:40.768Z,1016.95
2019-04-11T09:47:40.427Z,1016.85
2019-04-11T09:48:40.355Z,1016.89
2019-04-11T09:49:40.369Z,1016.90
2019-04-11T09:51:01.405Z,1016.87
2019-04-11T09:51:40.456Z,1016.89
2019-04-11T09:52:40.926Z,1016.93
2019-04-11T09:53:41.039Z,1016.87
2019-04-11T09:54:40.443Z,1016.84
2019-04-11T09:55:41.573Z,1016.89
2019-04-11T09:57:02.245Z,1016.92
2019-04-11T09:57:40.479Z,1016.94
2019-04-11T09:58:40.510Z,1016.96
2019-04-11T09:59:41.149Z,1016.95
2019-04-11T10:00:41.054Z,1016.94
2019-04-11T10:01:40.798Z,1016.90
2019-04-11T10:03:01.699Z,1017.04
2019-04-11T10:03:40.881Z,1017.14
2019-04-11T10:04:41.574Z,1016.92
2019-04-11T10:05:40.713Z,1017.22
2019-04-11T10:06:40.975Z,1017.16
2019-04-11T10:07:41.885Z,1017.24
2019-04-11T10:09:01.866Z,1017.22
2019-04-11T10:09:40.976Z,1017.27
2019-04-11T10:10:43.136Z,1017.59
2019-04-11T10:11:41.990Z,1017.56
2019-04-11T10:12:40.763Z,1017.76
2019-04-11T10:13:40.876Z,1017.44
2019-04-11T10:15:03.023Z,1017.45
2019-04-11T10:15:40.869Z,1017.43
2019-04-11T10:16:40.786Z,1017.37
2019-04-11T10:17:42.330Z,1017.45
2019-04-11T10:18:42.381Z,1017.38
2019-04-11T10:19:42.198Z,1017.28
2019-04-11T10:21:01.878Z,1017.34
2019-04-11T10:21:41.697Z,1016.90
2019-04-11T10:22:40.901Z,1017.07
2019-04-11T10:23:41.075Z,1016.84
2019-04-11T10:24:40.966Z,1016.92
2019-04-11T10:25:41.100Z,1016.80
2019-04-11T10:27:02.642Z,1016.81
2019-04-11T10:27:40.980Z,1017.17
2019-04-11T10:28:41.761Z,1017.27
2019-04-11T10:29:41.807Z,1017.44
2019-04-11T10:30:41.965Z,1017.53
2019-04-11T10:31:42.226Z,1017.49
2019-04-11T10:33:02.093Z,1017.32
2019-04-11T10:33:41.429Z,1017.54
2019-04-11T10:34:41.753Z,1016.93
2019-04-11T10:35:41.147Z,1017.58
2019-04-11T10:36:41.154Z,1017.14
2019-04-11T10:37:42.104Z,1016.98
2019-04-11T10:39:02.763Z,1016.92
2019-04-11T10:39:41.724Z,1016.91
2019-04-11T10:40:41.961Z,1016.92
2019-04-11T10:41:42.026Z,1016.95
2019-04-11T10:42:42.431Z,1017.01
2019-04-11T10:43:42.522Z,1016.92
2019-04-11T10:45:02.748Z,1016.99
2019-04-11T10:45:41.306Z,1016.99
2019-04-11T10:46:41.759Z,1017.04
2019-04-11T10:47:41.352Z,1017.02
2019-04-11T10:48:44.829Z,1016.97
2019-04-11T10:49:42.112Z,1017.05
2019-04-11T10:51:02.433Z,1017.04
2019-04-11T10:51:42.267Z,1017.09
2019-04-11T10:52:42.442Z,1017.10
2019-04-11T10:53:41.614Z,1017.12
2019-04-11T10:54:41.547Z,1017.07
2019-04-11T10:55:41.991Z,1017.02
2019-04-11T10:57:03.449Z,1017.00
2019-04-11T10:57:42.392Z,1017.06
2019-04-11T10:58:42.674Z,1016.95
2019-04-11T10:59:42.793Z,1016.91
2019-04-11T11:00:41.590Z,1016.87
2019-04-11T11:01:42.299Z,1016.97
2019-04-11T11:03:02.694Z,1017.03
2019-04-11T11:03:41.662Z,1017.06
2019-04-11T11:04:42.938Z,1017.11
2019-04-11T11:05:42.730Z,1017.12
2019-04-11T11:06:41.986Z,1017.19
2019-04-11T11:07:42.498Z,1017.25
2019-04-11T11:09:03.922Z,1017.23
2019-04-11T11:09:42.089Z,1017.29
2019-04-11T11:10:41.904Z,1017.26
2019-04-11T11:11:41.824Z,1017.30
2019-04-11T11:12:41.821Z,1017.29
2019-04-11T11:13:42.438Z,1017.20
2019-04-11T11:15:03.175Z,1017.11
2019-04-11T11:15:41.972Z,1017.17
2019-04-11T11:16:44.986Z,1017.22
2019-04-11T11:18:00.930Z,1017.23
2019-04-11T11:19:15.568Z,1017.19
2019-04-11T11:19:57.180Z,1017.19
2019-04-11T11:21:05.319Z,1016.99
2019-04-11T11:21:42.936Z,1017.14
2019-04-11T11:22:43.416Z,1017.09
2019-04-11T11:23:42.855Z,1016.98
2019-04-11T11:24:42.132Z,1017.05
2019-04-11T11:25:47.525Z,1017.05
2019-04-11T11:27:04.529Z,1017.07
2019-04-11T11:27:42.124Z,1017.11
2019-04-11T11:28:43.135Z,1017.04
2019-04-11T11:29:43.092Z,1017.02
2019-04-11T11:30:42.189Z,1016.97
2019-04-11T11:31:42.772Z,1017.04
2019-04-11T11:33:03.261Z,1017.00
2019-04-11T11:33:42.682Z,1017.01
2019-04-11T11:34:42.318Z,1017.05
2019-04-11T11:35:42.769Z,1016.97
2019-04-11T11:36:43.626Z,1016.98
2019-04-11T11:37:42.348Z,1016.92
2019-04-11T11:39:03.486Z,1017.01
2019-04-11T11:39:43.598Z,1017.03
2019-04-11T11:40:43.213Z,1017.03
2019-04-11T11:41:42.698Z,1016.98
2019-04-11T11:42:42.425Z,1017.02
2019-04-11T11:43:43.326Z,1017.05
2019-04-11T11:45:04.179Z,1017.08
2019-04-11T11:45:46.876Z,1017.03
2019-04-11T11:46:42.674Z,1017.01
2019-04-11T11:47:43.176Z,1017.08
2019-04-11T11:48:46.350Z,1017.05
2019-04-11T11:49:51.924Z,1017.06
2019-04-11T11:51:03.600Z,1017.08
2019-04-11T11:51:43.581Z,1017.01
2019-04-11T11:52:43.941Z,1017.09
2019-04-11T11:53:42.811Z,1016.99
2019-04-11T11:54:43.874Z,1017.03
2019-04-11T11:55:43.208Z,1016.95
2019-04-11T11:57:04.595Z,1017.00
2019-04-11T11:57:42.778Z,1017.03
2019-04-11T11:58:45.160Z,1016.98
2019-04-11T11:59:42.952Z,1017.00
2019-04-11T12:00:42.797Z,1016.99
2019-04-11T12:01:46.512Z,1017.04
2019-04-11T12:03:03.845Z,1017.04
2019-04-11T12:03:42.882Z,1017.03
2019-04-11T12:04:42.868Z,1017.02
2019-04-11T12:05:48.216Z,1017.05
2019-04-11T12:06:43.065Z,1016.95
2019-04-11T12:07:43.138Z,1016.95